PAL1781 RPLL-RPVP
Flight info
| Callsign | PAL1781 |
|---|---|
| Flight time | N/A |
| Altitude | 40000 |
| Route | RDVXBUCAL/06 BUCAL M646 NOMYO NOMYO2W |
| Aircraft | A359/H-SDE2E3GHIJ3J4J5LM1ORWXY/LB1D1 |
Departure
| Time | N/A |
|---|---|
| Airport | Ninoy Aquino International Airport (RPLL) |
Arrival
| Time | 2026-04-26 13:47 |
|---|---|
| Airport | Puerto Princesa International Airport / PAF Antonio Bautista Air Base (RPVP) |
| Time | Latitude | Longitude | Altitude | Speed | Heading |
|---|---|---|---|---|---|
| 2026-04-26 13:17 | 12.34823 | 119.98255 | 39901 ft | 477 kts | 206° |
| 2026-04-26 13:17 | 12.31820 | 119.96825 | 39916 ft | 477 kts | 206° |
| 2026-04-26 13:18 | 12.22829 | 119.92543 | 39901 ft | 476 kts | 206° |
| 2026-04-26 13:19 | 12.13809 | 119.88251 | 39911 ft | 476 kts | 206° |
| 2026-04-26 13:19 | 12.07803 | 119.85395 | 39915 ft | 476 kts | 206° |
| 2026-04-26 13:20 | 12.01794 | 119.82539 | 39913 ft | 475 kts | 206° |
| 2026-04-26 13:20 | 11.95796 | 119.79689 | 39905 ft | 476 kts | 206° |
| 2026-04-26 13:21 | 11.89793 | 119.76839 | 39911 ft | 476 kts | 206° |
| 2026-04-26 13:21 | 11.83787 | 119.73988 | 39590 ft | 475 kts | 206° |
| 2026-04-26 13:21 | 11.80784 | 119.72564 | 39355 ft | 476 kts | 206° |
| 2026-04-26 13:22 | 11.78796 | 119.71621 | 39207 ft | 476 kts | 206° |
| 2026-04-26 13:22 | 11.77785 | 119.71141 | 39129 ft | 476 kts | 206° |
| 2026-04-26 13:23 | 11.62214 | 119.63827 | 37842 ft | 478 kts | 206° |
| 2026-04-26 13:23 | 11.59181 | 119.62422 | 37589 ft | 479 kts | 206° |
| 2026-04-26 13:23 | 11.56142 | 119.61013 | 37331 ft | 480 kts | 205° |
| 2026-04-26 13:24 | 11.53108 | 119.59606 | 37090 ft | 480 kts | 205° |
| 2026-04-26 13:24 | 11.50098 | 119.58210 | 36835 ft | 481 kts | 205° |
| 2026-04-26 13:24 | 11.47011 | 119.56779 | 36579 ft | 481 kts | 205° |
| 2026-04-26 13:24 | 11.44005 | 119.55385 | 36338 ft | 482 kts | 205° |
| 2026-04-26 13:25 | 11.40948 | 119.53968 | 36096 ft | 482 kts | 205° |
| 2026-04-26 13:25 | 11.37886 | 119.52549 | 35860 ft | 483 kts | 205° |
| 2026-04-26 13:25 | 11.34824 | 119.51130 | 35621 ft | 484 kts | 205° |
| 2026-04-26 13:25 | 11.31758 | 119.49710 | 35390 ft | 485 kts | 205° |
| 2026-04-26 13:26 | 11.28677 | 119.48283 | 35146 ft | 486 kts | 205° |
| 2026-04-26 13:26 | 11.25603 | 119.46859 | 34906 ft | 486 kts | 205° |
| 2026-04-26 13:26 | 11.22533 | 119.45438 | 34282 ft | 484 kts | 205° |
| 2026-04-26 13:26 | 11.19459 | 119.44015 | 33426 ft | 487 kts | 205° |
| 2026-04-26 13:27 | 11.16367 | 119.42585 | 32547 ft | 489 kts | 204° |
| 2026-04-26 13:27 | 11.13263 | 119.41149 | 31682 ft | 491 kts | 204° |
| 2026-04-26 13:27 | 11.10142 | 119.39706 | 30779 ft | 494 kts | 204° |
| 2026-04-26 13:27 | 11.07005 | 119.38256 | 29818 ft | 498 kts | 204° |
| 2026-04-26 13:28 | 11.03836 | 119.36791 | 28751 ft | 501 kts | 204° |
| 2026-04-26 13:28 | 11.00668 | 119.35327 | 28060 ft | 496 kts | 204° |
| 2026-04-26 13:28 | 10.97543 | 119.33883 | 27383 ft | 492 kts | 204° |
| 2026-04-26 13:28 | 10.95485 | 119.32932 | 26936 ft | 489 kts | 204° |
| 2026-04-26 13:29 | 10.92389 | 119.31502 | 26248 ft | 486 kts | 205° |
| 2026-04-26 13:29 | 10.89322 | 119.30086 | 25569 ft | 482 kts | 205° |
| 2026-04-26 13:29 | 10.86276 | 119.28680 | 24894 ft | 479 kts | 205° |
| 2026-04-26 13:29 | 10.83246 | 119.27281 | 24221 ft | 476 kts | 204° |
| 2026-04-26 13:30 | 10.80241 | 119.25894 | 23558 ft | 474 kts | 204° |
| 2026-04-26 13:30 | 10.77247 | 119.24513 | 22790 ft | 471 kts | 204° |
| 2026-04-26 13:30 | 10.74279 | 119.23143 | 22115 ft | 466 kts | 204° |
| 2026-04-26 13:30 | 10.71336 | 119.21785 | 21445 ft | 461 kts | 204° |
| 2026-04-26 13:31 | 10.68426 | 119.20443 | 20784 ft | 456 kts | 204° |
| 2026-04-26 13:31 | 10.65573 | 119.19129 | 20124 ft | 452 kts | 204° |
| 2026-04-26 13:31 | 10.62686 | 119.17797 | 19442 ft | 449 kts | 204° |
| 2026-04-26 13:31 | 10.59853 | 119.16491 | 18784 ft | 446 kts | 203° |
| 2026-04-26 13:32 | 10.57074 | 119.15212 | 18106 ft | 443 kts | 204° |
| 2026-04-26 13:32 | 10.54239 | 119.13907 | 17363 ft | 440 kts | 203° |
| 2026-04-26 13:32 | 10.51503 | 119.12648 | 16686 ft | 435 kts | 203° |
| 2026-04-26 13:32 | 10.48756 | 119.11383 | 16005 ft | 431 kts | 204° |
| 2026-04-26 13:33 | 10.46043 | 119.10133 | 15330 ft | 427 kts | 203° |
| 2026-04-26 13:33 | 10.43345 | 119.08892 | 14650 ft | 423 kts | 204° |
| 2026-04-26 13:33 | 10.40670 | 119.07661 | 13973 ft | 420 kts | 204° |
| 2026-04-26 13:33 | 10.38013 | 119.06439 | 13230 ft | 417 kts | 203° |
| 2026-04-26 13:34 | 10.35400 | 119.05201 | 12527 ft | 413 kts | 206° |
| 2026-04-26 13:34 | 10.32984 | 119.03645 | 11851 ft | 410 kts | 215° |
| 2026-04-26 13:34 | 10.30730 | 119.01961 | 11679 ft | 392 kts | 216° |
| 2026-04-26 13:34 | 10.29305 | 119.00882 | 11594 ft | 380 kts | 216° |
| 2026-04-26 13:35 | 10.26554 | 118.98804 | 11428 ft | 357 kts | 216° |
| 2026-04-26 13:35 | 10.24602 | 118.97334 | 11305 ft | 342 kts | 216° |
| 2026-04-26 13:35 | 10.22725 | 118.95925 | 11173 ft | 328 kts | 216° |
| 2026-04-26 13:35 | 10.20930 | 118.94576 | 11031 ft | 315 kts | 216° |
| 2026-04-26 13:36 | 10.19190 | 118.93269 | 10755 ft | 309 kts | 215° |
| 2026-04-26 13:36 | 10.17467 | 118.91978 | 10372 ft | 306 kts | 215° |
| 2026-04-26 13:36 | 10.15751 | 118.90706 | 10032 ft | 303 kts | 214° |
| 2026-04-26 13:36 | 10.13872 | 118.89787 | 9658 ft | 301 kts | 191° |
| 2026-04-26 13:37 | 10.11811 | 118.89736 | 9307 ft | 297 kts | 166° |
| 2026-04-26 13:37 | 10.09816 | 118.90256 | 8971 ft | 296 kts | 161° |
| 2026-04-26 13:37 | 10.07874 | 118.90850 | 8643 ft | 294 kts | 160° |
| 2026-04-26 13:37 | 10.05890 | 118.91457 | 8301 ft | 293 kts | 160° |
| 2026-04-26 13:38 | 10.03945 | 118.92046 | 7983 ft | 291 kts | 160° |
| 2026-04-26 13:38 | 10.02038 | 118.92624 | 7653 ft | 288 kts | 161° |
| 2026-04-26 13:38 | 10.00112 | 118.93204 | 7330 ft | 288 kts | 161° |
| 2026-04-26 13:38 | 9.98196 | 118.93774 | 7002 ft | 285 kts | 161° |
| 2026-04-26 13:39 | 9.96298 | 118.94344 | 6672 ft | 284 kts | 160° |
| 2026-04-26 13:39 | 9.94407 | 118.94908 | 6338 ft | 282 kts | 160° |
| 2026-04-26 13:39 | 9.92532 | 118.95464 | 5994 ft | 280 kts | 160° |
| 2026-04-26 13:39 | 9.90664 | 118.96019 | 5661 ft | 279 kts | 160° |
| 2026-04-26 13:40 | 9.88804 | 118.96573 | 5335 ft | 279 kts | 160° |
| 2026-04-26 13:40 | 9.86941 | 118.97126 | 5006 ft | 278 kts | 160° |
| 2026-04-26 13:40 | 9.85094 | 118.97676 | 4683 ft | 277 kts | 160° |
| 2026-04-26 13:40 | 9.83248 | 118.98227 | 4345 ft | 276 kts | 161° |
| 2026-04-26 13:41 | 9.81378 | 118.98651 | 4019 ft | 278 kts | 173° |
| 2026-04-26 13:41 | 9.79470 | 118.98658 | 3835 ft | 268 kts | 180° |
| 2026-04-26 13:41 | 9.77651 | 118.98567 | 3734 ft | 255 kts | 180° |
| 2026-04-26 13:41 | 9.75919 | 118.98456 | 3620 ft | 244 kts | 184° |
| 2026-04-26 13:42 | 9.74372 | 118.97878 | 3495 ft | 234 kts | 217° |
| 2026-04-26 13:42 | 9.73467 | 118.96593 | 3400 ft | 219 kts | 254° |
| 2026-04-26 13:42 | 9.73313 | 118.95127 | 3321 ft | 202 kts | 276° |
| 2026-04-26 13:42 | 9.73443 | 118.93768 | 3209 ft | 190 kts | 277° |
| 2026-04-26 13:43 | 9.73512 | 118.92464 | 3014 ft | 183 kts | 272° |
| 2026-04-26 13:43 | 9.73551 | 118.91185 | 2753 ft | 179 kts | 274° |
| 2026-04-26 13:43 | 9.73608 | 118.89937 | 2506 ft | 176 kts | 274° |
| 2026-04-26 13:43 | 9.73661 | 118.88708 | 2268 ft | 172 kts | 274° |
| 2026-04-26 13:44 | 9.73711 | 118.87517 | 2040 ft | 167 kts | 274° |
| 2026-04-26 13:44 | 9.73761 | 118.86342 | 1831 ft | 166 kts | 273° |
| 2026-04-26 13:44 | 9.73810 | 118.85207 | 1615 ft | 157 kts | 273° |
| 2026-04-26 13:44 | 9.73856 | 118.84130 | 1382 ft | 148 kts | 273° |
| 2026-04-26 13:45 | 9.73900 | 118.83103 | 1214 ft | 145 kts | 273° |
| 2026-04-26 13:45 | 9.73944 | 118.82081 | 1021 ft | 146 kts | 273° |
| 2026-04-26 13:45 | 9.73996 | 118.81055 | 848 ft | 146 kts | 273° |
| 2026-04-26 13:45 | 9.74035 | 118.80020 | 598 ft | 147 kts | 271° |
| 2026-04-26 13:46 | 9.74068 | 118.78989 | 414 ft | 147 kts | 272° |
| 2026-04-26 13:46 | 9.74119 | 118.77964 | 275 ft | 146 kts | 273° |
| 2026-04-26 13:46 | 9.74168 | 118.76924 | 100 ft | 149 kts | 273° |
| 2026-04-26 13:46 | 9.74208 | 118.75971 | 84 ft | 106 kts | 273° |
| 2026-04-26 13:47 | 9.74229 | 118.75520 | 89 ft | 31 kts | 272° |
| 2026-04-26 13:47 | 9.74239 | 118.75322 | 90 ft | 22 kts | 272° |
| 2026-04-26 13:47 | 9.74241 | 118.75292 | 91 ft | 8 kts | 276° |
| 2026-04-26 13:47 | 9.74311 | 118.75253 | 88 ft | 14 kts | 0° |
| 2026-04-26 13:48 | 9.74398 | 118.75224 | 92 ft | 14 kts | 303° |
| 2026-04-26 13:48 | 9.74413 | 118.75142 | 92 ft | 12 kts | 275° |
| 2026-04-26 13:48 | 9.74424 | 118.75115 | 93 ft | 2 kts | 315° |
| 2026-04-26 13:48 | 9.74437 | 118.75112 | 93 ft | 3 kts | 346° |
| 2026-04-26 13:49 | 9.74473 | 118.75112 | 90 ft | 3 kts | 2° |
| 2026-04-26 13:49 | 9.74482 | 118.75113 | 90 ft | 0 kts | 2° |
| 2026-04-26 13:49 | 9.74489 | 118.75113 | 89 ft | 2 kts | 2° |
| 2026-04-26 13:49 | 9.74496 | 118.75113 | 88 ft | 0 kts | 2° |